sensor_id;sensor_type;location;lat;lon;timestamp;temperature;humidity
31747;DHT22;18319;48.974;8.462;2023-11-19T00:02:19;9.50;99.90
31747;DHT22;18319;48.974;8.462;2023-11-19T00:04:47;9.60;99.90
31747;DHT22;18319;48.974;8.462;2023-11-19T00:07:14;9.50;99.90
31747;DHT22;18319;48.974;8.462;2023-11-19T00:09:41;9.50;99.90
31747;DHT22;18319;48.974;8.462;2023-11-19T00:12:09;9.60;99.90
31747;DHT22;18319;48.974;8.462;2023-11-19T00:14:36;9.50;99.90
31747;DHT22;18319;48.974;8.462;2023-11-19T00:17:02;9.60;99.90
31747;DHT22;18319;48.974;8.462;2023-11-19T00:19:30;9.70;99.90
31747;DHT22;18319;48.974;8.462;2023-11-19T00:21:58;9.80;99.90
31747;DHT22;18319;48.974;8.462;2023-11-19T00:24:29;9.70;99.90
31747;DHT22;18319;48.974;8.462;2023-11-19T00:26:56;9.80;99.90
31747;DHT22;18319;48.974;8.462;2023-11-19T00:29:23;9.80;99.90
31747;DHT22;18319;48.974;8.462;2023-11-19T00:31:50;9.80;99.90
31747;DHT22;18319;48.974;8.462;2023-11-19T00:34:17;9.80;99.90
31747;DHT22;18319;48.974;8.462;2023-11-19T00:36:47;9.90;99.90
31747;DHT22;18319;48.974;8.462;2023-11-19T00:39:15;9.90;99.90
31747;DHT22;18319;48.974;8.462;2023-11-19T00:41:43;9.90;99.90
31747;DHT22;18319;48.974;8.462;2023-11-19T00:44:11;10.00;99.90
31747;DHT22;18319;48.974;8.462;2023-11-19T00:46:38;10.00;99.90
31747;DHT22;18319;48.974;8.462;2023-11-19T00:49:05;10.00;99.90
31747;DHT22;18319;48.974;8.462;2023-11-19T00:51:32;10.00;99.90
31747;DHT22;18319;48.974;8.462;2023-11-19T00:53:59;10.00;99.90
31747;DHT22;18319;48.974;8.462;2023-11-19T00:56:27;10.00;99.90
31747;DHT22;18319;48.974;8.462;2023-11-19T00:58:54;10.10;99.90
31747;DHT22;18319;48.974;8.462;2023-11-19T01:01:21;10.10;99.90
31747;DHT22;18319;48.974;8.462;2023-11-19T01:03:48;10.10;99.90
31747;DHT22;18319;48.974;8.462;2023-11-19T01:06:15;10.20;99.90
31747;DHT22;18319;48.974;8.462;2023-11-19T01:08:52;10.20;99.90
31747;DHT22;18319;48.974;8.462;2023-11-19T01:11:20;10.20;99.90
31747;DHT22;18319;48.974;8.462;2023-11-19T01:13:49;10.20;99.90
31747;DHT22;18319;48.974;8.462;2023-11-19T01:16:15;10.20;99.90
31747;DHT22;18319;48.974;8.462;2023-11-19T01:18:42;10.20;99.90
31747;DHT22;18319;48.974;8.462;2023-11-19T01:21:09;10.20;99.90
31747;DHT22;18319;48.974;8.462;2023-11-19T01:23:36;10.30;99.90
31747;DHT22;18319;48.974;8.462;2023-11-19T01:26:03;10.30;99.90
31747;DHT22;18319;48.974;8.462;2023-11-19T01:28:31;10.30;99.90
31747;DHT22;18319;48.974;8.462;2023-11-19T01:31:00;10.30;99.90
31747;DHT22;18319;48.974;8.462;2023-11-19T01:33:26;10.30;99.90
31747;DHT22;18319;48.974;8.462;2023-11-19T01:35:53;10.40;99.90
31747;DHT22;18319;48.974;8.462;2023-11-19T01:38:24;10.40;99.90
31747;DHT22;18319;48.974;8.462;2023-11-19T01:40:55;10.30;99.90
31747;DHT22;18319;48.974;8.462;2023-11-19T01:43:33;10.30;99.90
31747;DHT22;18319;48.974;8.462;2023-11-19T01:46:02;10.30;99.90
31747;DHT22;18319;48.974;8.462;2023-11-19T01:48:31;10.30;99.90
31747;DHT22;18319;48.974;8.462;2023-11-19T01:51:00;10.40;99.90
31747;DHT22;18319;48.974;8.462;2023-11-19T01:53:30;10.40;99.90
31747;DHT22;18319;48.974;8.462;2023-11-19T01:55:58;10.40;99.90
31747;DHT22;18319;48.974;8.462;2023-11-19T01:58:25;10.40;99.90
31747;DHT22;18319;48.974;8.462;2023-11-19T02:00:56;10.40;99.90
31747;DHT22;18319;48.974;8.462;2023-11-19T02:03:25;10.40;99.90
31747;DHT22;18319;48.974;8.462;2023-11-19T02:05:54;10.40;99.90
31747;DHT22;18319;48.974;8.462;2023-11-19T02:08:21;10.50;99.90
31747;DHT22;18319;48.974;8.462;2023-11-19T02:10:48;10.40;99.90
31747;DHT22;18319;48.974;8.462;2023-11-19T02:13:17;10.40;99.90
31747;DHT22;18319;48.974;8.462;2023-11-19T02:15:44;10.50;99.90
31747;DHT22;18319;48.974;8.462;2023-11-19T02:18:22;10.50;99.90
31747;DHT22;18319;48.974;8.462;2023-11-19T02:20:50;10.50;99.90
31747;DHT22;18319;48.974;8.462;2023-11-19T02:23:18;10.40;99.90
31747;DHT22;18319;48.974;8.462;2023-11-19T02:25:50;10.40;99.90
31747;DHT22;18319;48.974;8.462;2023-11-19T02:28:20;10.50;99.90
31747;DHT22;18319;48.974;8.462;2023-11-19T02:30:47;10.40;99.90
31747;DHT22;18319;48.974;8.462;2023-11-19T02:33:14;10.50;99.90
31747;DHT22;18319;48.974;8.462;2023-11-19T02:35:41;10.50;99.90
31747;DHT22;18319;48.974;8.462;2023-11-19T02:38:08;10.50;99.90
31747;DHT22;18319;48.974;8.462;2023-11-19T02:40:35;10.50;99.90
31747;DHT22;18319;48.974;8.462;2023-11-19T02:43:02;10.40;99.90
31747;DHT22;18319;48.974;8.462;2023-11-19T02:45:31;10.50;99.90
31747;DHT22;18319;48.974;8.462;2023-11-19T02:47:58;10.50;99.90
31747;DHT22;18319;48.974;8.462;2023-11-19T02:50:27;10.60;99.90
31747;DHT22;18319;48.974;8.462;2023-11-19T02:52:55;10.60;99.90
31747;DHT22;18319;48.974;8.462;2023-11-19T02:55:23;10.60;99.90
31747;DHT22;18319;48.974;8.462;2023-11-19T02:57:52;10.60;99.90
31747;DHT22;18319;48.974;8.462;2023-11-19T03:00:20;10.60;99.90
31747;DHT22;18319;48.974;8.462;2023-11-19T03:02:59;10.60;99.90
31747;DHT22;18319;48.974;8.462;2023-11-19T03:05:31;10.60;99.90
31747;DHT22;18319;48.974;8.462;2023-11-19T03:07:58;10.70;99.90
31747;DHT22;18319;48.974;8.462;2023-11-19T03:10:25;10.70;99.90
31747;DHT22;18319;48.974;8.462;2023-11-19T03:12:52;10.70;99.90
31747;DHT22;18319;48.974;8.462;2023-11-19T03:15:21;10.60;99.90
31747;DHT22;18319;48.974;8.462;2023-11-19T03:17:47;10.70;99.90
31747;DHT22;18319;48.974;8.462;2023-11-19T03:20:16;10.70;99.90
31747;DHT22;18319;48.974;8.462;2023-11-19T03:22:43;10.70;99.90
31747;DHT22;18319;48.974;8.462;2023-11-19T03:25:10;10.80;99.90
31747;DHT22;18319;48.974;8.462;2023-11-19T03:27:39;10.70;99.90
31747;DHT22;18319;48.974;8.462;2023-11-19T03:30:08;10.70;99.90
31747;DHT22;18319;48.974;8.462;2023-11-19T03:32:36;10.80;99.90
31747;DHT22;18319;48.974;8.462;2023-11-19T03:35:05;10.80;99.90
31747;DHT22;18319;48.974;8.462;2023-11-19T03:37:36;10.80;99.90
31747;DHT22;18319;48.974;8.462;2023-11-19T03:40:04;10.70;99.90
31747;DHT22;18319;48.974;8.462;2023-11-19T03:42:31;10.80;99.90
31747;DHT22;18319;48.974;8.462;2023-11-19T03:44:58;10.70;99.90
31747;DHT22;18319;48.974;8.462;2023-11-19T03:47:25;10.80;99.90
31747;DHT22;18319;48.974;8.462;2023-11-19T03:49:52;10.80;99.90
31747;DHT22;18319;48.974;8.462;2023-11-19T03:52:18;10.80;99.90
31747;DHT22;18319;48.974;8.462;2023-11-19T03:54:47;10.80;99.90
31747;DHT22;18319;48.974;8.462;2023-11-19T03:57:13;10.80;99.90
31747;DHT22;18319;48.974;8.462;2023-11-19T03:59:41;10.80;99.90
31747;DHT22;18319;48.974;8.462;2023-11-19T04:02:08;10.90;99.90
31747;DHT22;18319;48.974;8.462;2023-11-19T04:04:35;10.90;99.90
31747;DHT22;18319;48.974;8.462;2023-11-19T04:07:03;10.90;99.90
31747;DHT22;18319;48.974;8.462;2023-11-19T04:09:30;10.90;99.90
31747;DHT22;18319;48.974;8.462;2023-11-19T04:11:59;10.80;99.90
31747;DHT22;18319;48.974;8.462;2023-11-19T04:14:27;10.90;99.90
31747;DHT22;18319;48.974;8.462;2023-11-19T04:16:53;10.80;99.90
31747;DHT22;18319;48.974;8.462;2023-11-19T04:19:20;10.90;99.90
31747;DHT22;18319;48.974;8.462;2023-11-19T04:21:47;10.90;99.90
31747;DHT22;18319;48.974;8.462;2023-11-19T04:24:14;10.90;99.90
31747;DHT22;18319;48.974;8.462;2023-11-19T04:26:41;10.90;99.90
31747;DHT22;18319;48.974;8.462;2023-11-19T04:29:12;10.90;99.90
31747;DHT22;18319;48.974;8.462;2023-11-19T04:31:40;10.90;99.90
31747;DHT22;18319;48.974;8.462;2023-11-19T04:34:07;10.90;99.90
31747;DHT22;18319;48.974;8.462;2023-11-19T04:36:34;10.90;99.90
31747;DHT22;18319;48.974;8.462;2023-11-19T04:39:03;11.00;99.90
31747;DHT22;18319;48.974;8.462;2023-11-19T04:41:34;11.10;99.90
31747;DHT22;18319;48.974;8.462;2023-11-19T04:44:00;11.00;99.90
31747;DHT22;18319;48.974;8.462;2023-11-19T04:46:28;11.00;99.90
31747;DHT22;18319;48.974;8.462;2023-11-19T04:48:55;11.10;99.90
31747;DHT22;18319;48.974;8.462;2023-11-19T04:51:22;11.10;99.90
31747;DHT22;18319;48.974;8.462;2023-11-19T04:53:49;11.10;99.90
31747;DHT22;18319;48.974;8.462;2023-11-19T04:56:15;11.10;99.90
31747;DHT22;18319;48.974;8.462;2023-11-19T04:58:45;11.00;99.90
31747;DHT22;18319;48.974;8.462;2023-11-19T05:01:13;11.20;99.90
31747;DHT22;18319;48.974;8.462;2023-11-19T05:03:43;11.20;99.90
31747;DHT22;18319;48.974;8.462;2023-11-19T05:06:10;11.30;99.90
31747;DHT22;18319;48.974;8.462;2023-11-19T05:08:37;11.30;99.90
31747;DHT22;18319;48.974;8.462;2023-11-19T05:11:04;11.30;99.90
31747;DHT22;18319;48.974;8.462;2023-11-19T05:13:32;11.30;99.90
31747;DHT22;18319;48.974;8.462;2023-11-19T05:15:58;11.20;99.90
31747;DHT22;18319;48.974;8.462;2023-11-19T05:18:25;11.30;99.90
31747;DHT22;18319;48.974;8.462;2023-11-19T05:20:53;11.30;99.90
31747;DHT22;18319;48.974;8.462;2023-11-19T05:23:20;11.30;99.90
31747;DHT22;18319;48.974;8.462;2023-11-19T05:25:47;11.30;99.90
31747;DHT22;18319;48.974;8.462;2023-11-19T05:28:13;11.30;99.90
31747;DHT22;18319;48.974;8.462;2023-11-19T05:30:40;11.30;99.90
31747;DHT22;18319;48.974;8.462;2023-11-19T05:33:07;11.30;99.90
31747;DHT22;18319;48.974;8.462;2023-11-19T05:35:34;11.30;99.90
31747;DHT22;18319;48.974;8.462;2023-11-19T05:38:03;11.40;99.90
31747;DHT22;18319;48.974;8.462;2023-11-19T05:40:31;11.30;99.90
31747;DHT22;18319;48.974;8.462;2023-11-19T05:42:58;11.40;99.90
31747;DHT22;18319;48.974;8.462;2023-11-19T05:45:25;11.50;99.90
31747;DHT22;18319;48.974;8.462;2023-11-19T05:47:52;11.40;99.90
31747;DHT22;18319;48.974;8.462;2023-11-19T05:50:18;11.50;99.90
31747;DHT22;18319;48.974;8.462;2023-11-19T05:52:46;11.50;99.90
31747;DHT22;18319;48.974;8.462;2023-11-19T05:55:14;11.50;99.90
31747;DHT22;18319;48.974;8.462;2023-11-19T05:57:41;11.50;99.90
31747;DHT22;18319;48.974;8.462;2023-11-19T06:00:08;11.50;99.90
31747;DHT22;18319;48.974;8.462;2023-11-19T06:02:38;11.50;99.90
31747;DHT22;18319;48.974;8.462;2023-11-19T06:05:05;11.50;99.90
31747;DHT22;18319;48.974;8.462;2023-11-19T06:07:32;11.50;99.90
31747;DHT22;18319;48.974;8.462;2023-11-19T06:09:59;11.60;99.90
31747;DHT22;18319;48.974;8.462;2023-11-19T06:12:28;11.60;99.90
31747;DHT22;18319;48.974;8.462;2023-11-19T06:14:54;11.60;99.90
31747;DHT22;18319;48.974;8.462;2023-11-19T06:17:22;11.60;99.90
31747;DHT22;18319;48.974;8.462;2023-11-19T06:19:48;11.60;99.90
31747;DHT22;18319;48.974;8.462;2023-11-19T06:22:15;11.70;99.90
31747;DHT22;18319;48.974;8.462;2023-11-19T06:24:42;11.60;99.90
31747;DHT22;18319;48.974;8.462;2023-11-19T06:27:09;11.70;99.90
31747;DHT22;18319;48.974;8.462;2023-11-19T06:29:37;11.70;99.90
31747;DHT22;18319;48.974;8.462;2023-11-19T06:32:06;11.70;99.90
31747;DHT22;18319;48.974;8.462;2023-11-19T06:34:33;11.60;99.90
31747;DHT22;18319;48.974;8.462;2023-11-19T06:37:00;11.60;99.90
31747;DHT22;18319;48.974;8.462;2023-11-19T06:39:28;11.70;99.90
31747;DHT22;18319;48.974;8.462;2023-11-19T06:41:55;11.80;99.90
31747;DHT22;18319;48.974;8.462;2023-11-19T06:44:22;11.80;99.90
31747;DHT22;18319;48.974;8.462;2023-11-19T06:46:51;11.90;99.90
31747;DHT22;18319;48.974;8.462;2023-11-19T06:49:19;11.90;99.90
31747;DHT22;18319;48.974;8.462;2023-11-19T06:51:45;12.00;99.90
31747;DHT22;18319;48.974;8.462;2023-11-19T06:54:12;11.90;99.90
31747;DHT22;18319;48.974;8.462;2023-11-19T06:56:39;11.90;99.90
31747;DHT22;18319;48.974;8.462;2023-11-19T06:59:07;12.00;99.90
31747;DHT22;18319;48.974;8.462;2023-11-19T07:01:35;12.00;99.90
31747;DHT22;18319;48.974;8.462;2023-11-19T07:04:04;12.00;99.90
31747;DHT22;18319;48.974;8.462;2023-11-19T07:06:34;11.90;99.90
31747;DHT22;18319;48.974;8.462;2023-11-19T07:09:02;11.90;99.90
31747;DHT22;18319;48.974;8.462;2023-11-19T07:11:35;11.90;99.90
31747;DHT22;18319;48.974;8.462;2023-11-19T07:14:02;11.90;99.90
31747;DHT22;18319;48.974;8.462;2023-11-19T07:16:29;11.90;99.90
31747;DHT22;18319;48.974;8.462;2023-11-19T07:18:56;11.90;99.90
31747;DHT22;18319;48.974;8.462;2023-11-19T07:21:25;12.00;99.90
31747;DHT22;18319;48.974;8.462;2023-11-19T07:23:53;11.90;99.90
31747;DHT22;18319;48.974;8.462;2023-11-19T07:26:20;11.90;99.90
31747;DHT22;18319;48.974;8.462;2023-11-19T07:28:47;11.90;99.90
31747;DHT22;18319;48.974;8.462;2023-11-19T07:31:14;11.90;99.90
31747;DHT22;18319;48.974;8.462;2023-11-19T07:33:41;11.90;99.90
31747;DHT22;18319;48.974;8.462;2023-11-19T07:36:08;11.90;99.90
31747;DHT22;18319;48.974;8.462;2023-11-19T07:38:36;12.00;99.90
31747;DHT22;18319;48.974;8.462;2023-11-19T07:41:04;12.00;99.90
31747;DHT22;18319;48.974;8.462;2023-11-19T07:43:32;12.10;99.90
31747;DHT22;18319;48.974;8.462;2023-11-19T07:45:58;12.10;99.90
31747;DHT22;18319;48.974;8.462;2023-11-19T07:48:25;12.10;99.90
31747;DHT22;18319;48.974;8.462;2023-11-19T07:50:53;12.10;99.90
31747;DHT22;18319;48.974;8.462;2023-11-19T07:53:20;12.20;99.90
31747;DHT22;18319;48.974;8.462;2023-11-19T07:55:48;12.20;99.90
31747;DHT22;18319;48.974;8.462;2023-11-19T07:58:15;12.30;99.90
31747;DHT22;18319;48.974;8.462;2023-11-19T08:00:41;12.40;99.90
31747;DHT22;18319;48.974;8.462;2023-11-19T08:03:08;12.50;99.90
31747;DHT22;18319;48.974;8.462;2023-11-19T08:05:35;12.50;99.90
31747;DHT22;18319;48.974;8.462;2023-11-19T08:08:02;12.50;99.90
31747;DHT22;18319;48.974;8.462;2023-11-19T08:10:29;12.50;99.90
31747;DHT22;18319;48.974;8.462;2023-11-19T08:12:57;12.40;99.90
31747;DHT22;18319;48.974;8.462;2023-11-19T08:15:23;12.50;99.90
31747;DHT22;18319;48.974;8.462;2023-11-19T08:17:50;12.40;99.90
31747;DHT22;18319;48.974;8.462;2023-11-19T08:20:17;12.50;99.90
31747;DHT22;18319;48.974;8.462;2023-11-19T08:22:44;12.60;99.90
31747;DHT22;18319;48.974;8.462;2023-11-19T08:25:11;12.70;99.90
31747;DHT22;18319;48.974;8.462;2023-11-19T08:27:38;12.60;99.90
31747;DHT22;18319;48.974;8.462;2023-11-19T08:30:07;12.60;99.90
31747;DHT22;18319;48.974;8.462;2023-11-19T08:32:34;12.70;99.90
31747;DHT22;18319;48.974;8.462;2023-11-19T08:35:01;12.80;99.90
31747;DHT22;18319;48.974;8.462;2023-11-19T08:37:28;12.70;99.90
31747;DHT22;18319;48.974;8.462;2023-11-19T08:39:55;12.80;99.90
31747;DHT22;18319;48.974;8.462;2023-11-19T08:42:22;12.90;99.90
31747;DHT22;18319;48.974;8.462;2023-11-19T08:44:49;13.00;99.90
31747;DHT22;18319;48.974;8.462;2023-11-19T08:47:21;13.10;99.90
31747;DHT22;18319;48.974;8.462;2023-11-19T08:49:50;13.00;99.90
31747;DHT22;18319;48.974;8.462;2023-11-19T08:52:17;13.10;99.90
31747;DHT22;18319;48.974;8.462;2023-11-19T08:54:44;13.30;99.90
31747;DHT22;18319;48.974;8.462;2023-11-19T08:57:10;13.30;99.90
31747;DHT22;18319;48.974;8.462;2023-11-19T08:59:37;13.00;99.90
31747;DHT22;18319;48.974;8.462;2023-11-19T09:02:04;12.90;99.90
31747;DHT22;18319;48.974;8.462;2023-11-19T09:04:33;12.80;99.90
31747;DHT22;18319;48.974;8.462;2023-11-19T09:07:01;12.70;99.90
31747;DHT22;18319;48.974;8.462;2023-11-19T09:09:28;12.50;99.90
31747;DHT22;18319;48.974;8.462;2023-11-19T09:11:56;12.60;99.90
31747;DHT22;18319;48.974;8.462;2023-11-19T09:14:22;12.60;99.90
31747;DHT22;18319;48.974;8.462;2023-11-19T09:16:51;12.70;99.90
31747;DHT22;18319;48.974;8.462;2023-11-19T09:19:18;12.60;99.90
31747;DHT22;18319;48.974;8.462;2023-11-19T09:21:46;12.70;99.90
31747;DHT22;18319;48.974;8.462;2023-11-19T09:24:14;12.70;99.90
31747;DHT22;18319;48.974;8.462;2023-11-19T09:26:41;12.60;99.90
31747;DHT22;18319;48.974;8.462;2023-11-19T09:29:08;12.70;99.90
31747;DHT22;18319;48.974;8.462;2023-11-19T09:31:37;12.60;99.90
31747;DHT22;18319;48.974;8.462;2023-11-19T09:34:05;12.70;99.90
31747;DHT22;18319;48.974;8.462;2023-11-19T09:36:32;12.70;99.90
31747;DHT22;18319;48.974;8.462;2023-11-19T09:39:00;12.80;99.90
31747;DHT22;18319;48.974;8.462;2023-11-19T09:41:27;13.00;99.90
31747;DHT22;18319;48.974;8.462;2023-11-19T09:43:55;13.20;99.90
31747;DHT22;18319;48.974;8.462;2023-11-19T09:46:22;13.40;99.90
31747;DHT22;18319;48.974;8.462;2023-11-19T09:48:53;13.30;99.90
31747;DHT22;18319;48.974;8.462;2023-11-19T09:51:20;13.30;99.90
31747;DHT22;18319;48.974;8.462;2023-11-19T09:53:48;13.50;99.90
31747;DHT22;18319;48.974;8.462;2023-11-19T09:56:16;13.50;99.90
31747;DHT22;18319;48.974;8.462;2023-11-19T09:58:43;13.50;99.90
31747;DHT22;18319;48.974;8.462;2023-11-19T10:01:10;13.60;99.90
31747;DHT22;18319;48.974;8.462;2023-11-19T10:03:39;13.60;99.90
31747;DHT22;18319;48.974;8.462;2023-11-19T10:06:09;13.60;99.90
31747;DHT22;18319;48.974;8.462;2023-11-19T10:08:37;13.70;99.90
31747;DHT22;18319;48.974;8.462;2023-11-19T10:11:05;13.90;99.90
31747;DHT22;18319;48.974;8.462;2023-11-19T10:13:35;14.00;99.90
31747;DHT22;18319;48.974;8.462;2023-11-19T10:16:04;14.20;99.90
31747;DHT22;18319;48.974;8.462;2023-11-19T10:18:33;14.20;99.90
31747;DHT22;18319;48.974;8.462;2023-11-19T10:21:04;14.00;99.90
31747;DHT22;18319;48.974;8.462;2023-11-19T10:23:31;14.10;99.90
31747;DHT22;18319;48.974;8.462;2023-11-19T10:26:14;13.90;99.90
31747;DHT22;18319;48.974;8.462;2023-11-19T10:28:42;13.70;99.90
31747;DHT22;18319;48.974;8.462;2023-11-19T10:31:11;13.70;99.90
31747;DHT22;18319;48.974;8.462;2023-11-19T10:33:38;13.90;99.90
31747;DHT22;18319;48.974;8.462;2023-11-19T10:36:06;14.10;99.90
31747;DHT22;18319;48.974;8.462;2023-11-19T10:38:33;14.00;99.90
31747;DHT22;18319;48.974;8.462;2023-11-19T10:41:00;13.90;99.90
31747;DHT22;18319;48.974;8.462;2023-11-19T10:43:28;14.00;99.90
31747;DHT22;18319;48.974;8.462;2023-11-19T10:46:09;14.10;99.90
31747;DHT22;18319;48.974;8.462;2023-11-19T10:48:38;14.20;99.90
31747;DHT22;18319;48.974;8.462;2023-11-19T10:51:06;14.50;99.90
31747;DHT22;18319;48.974;8.462;2023-11-19T10:53:36;14.70;99.90
31747;DHT22;18319;48.974;8.462;2023-11-19T10:56:06;14.50;99.90
31747;DHT22;18319;48.974;8.462;2023-11-19T10:58:37;14.40;99.90
31747;DHT22;18319;48.974;8.462;2023-11-19T11:01:15;14.40;99.90
31747;DHT22;18319;48.974;8.462;2023-11-19T11:03:44;14.20;99.90
31747;DHT22;18319;48.974;8.462;2023-11-19T11:06:13;14.40;99.90
31747;DHT22;18319;48.974;8.462;2023-11-19T11:08:40;14.50;99.90
31747;DHT22;18319;48.974;8.462;2023-11-19T11:11:08;14.70;99.90
31747;DHT22;18319;48.974;8.462;2023-11-19T11:13:41;14.80;99.90
31747;DHT22;18319;48.974;8.462;2023-11-19T11:16:09;14.60;99.90
31747;DHT22;18319;48.974;8.462;2023-11-19T11:18:37;14.50;99.90
31747;DHT22;18319;48.974;8.462;2023-11-19T11:21:07;14.50;99.90
31747;DHT22;18319;48.974;8.462;2023-11-19T11:24:24;14.90;99.90
31747;DHT22;18319;48.974;8.462;2023-11-19T11:30:00;15.90;99.90
31747;DHT22;18319;48.974;8.462;2023-11-19T11:32:35;15.90;99.90
31747;DHT22;18319;48.974;8.462;2023-11-19T11:35:22;15.70;99.90
31747;DHT22;18319;48.974;8.462;2023-11-19T11:37:58;15.20;99.90
31747;DHT22;18319;48.974;8.462;2023-11-19T11:40:27;15.00;99.90
31747;DHT22;18319;48.974;8.462;2023-11-19T11:42:54;14.50;99.90
31747;DHT22;18319;48.974;8.462;2023-11-19T11:45:35;14.00;99.90
31747;DHT22;18319;48.974;8.462;2023-11-19T11:48:15;13.60;99.90
31747;DHT22;18319;48.974;8.462;2023-11-19T11:50:57;13.40;99.90
31747;DHT22;18319;48.974;8.462;2023-11-19T11:53:25;13.30;99.90
31747;DHT22;18319;48.974;8.462;2023-11-19T11:55:53;13.20;99.90
31747;DHT22;18319;48.974;8.462;2023-11-19T11:58:26;13.30;99.90
31747;DHT22;18319;48.974;8.462;2023-11-19T12:00:53;13.40;99.90
31747;DHT22;18319;48.974;8.462;2023-11-19T12:03:21;13.20;99.90
31747;DHT22;18319;48.974;8.462;2023-11-19T12:05:48;13.20;99.90
31747;DHT22;18319;48.974;8.462;2023-11-19T12:08:19;13.40;99.90
31747;DHT22;18319;48.974;8.462;2023-11-19T12:10:48;13.50;99.90
31747;DHT22;18319;48.974;8.462;2023-11-19T12:13:17;13.60;99.90
31747;DHT22;18319;48.974;8.462;2023-11-19T12:16:09;13.60;99.90
31747;DHT22;18319;48.974;8.462;2023-11-19T12:18:39;13.50;99.90
31747;DHT22;18319;48.974;8.462;2023-11-19T12:21:05;13.40;99.90
31747;DHT22;18319;48.974;8.462;2023-11-19T12:23:46;13.30;99.90
31747;DHT22;18319;48.974;8.462;2023-11-19T12:26:30;13.30;99.90
31747;DHT22;18319;48.974;8.462;2023-11-19T12:28:58;13.20;99.90
31747;DHT22;18319;48.974;8.462;2023-11-19T12:31:25;13.20;99.90
31747;DHT22;18319;48.974;8.462;2023-11-19T12:33:52;13.50;99.90
31747;DHT22;18319;48.974;8.462;2023-11-19T12:36:20;14.00;99.90
31747;DHT22;18319;48.974;8.462;2023-11-19T12:38:48;14.20;99.90
31747;DHT22;18319;48.974;8.462;2023-11-19T12:41:16;14.10;99.90
31747;DHT22;18319;48.974;8.462;2023-11-19T12:43:46;14.10;99.90
31747;DHT22;18319;48.974;8.462;2023-11-19T12:46:19;14.30;99.90
31747;DHT22;18319;48.974;8.462;2023-11-19T12:48:47;14.20;99.90
31747;DHT22;18319;48.974;8.462;2023-11-19T12:51:13;14.00;99.90
31747;DHT22;18319;48.974;8.462;2023-11-19T12:53:51;13.90;99.90
31747;DHT22;18319;48.974;8.462;2023-11-19T12:56:20;13.80;99.90
31747;DHT22;18319;48.974;8.462;2023-11-19T12:58:47;13.70;99.90
31747;DHT22;18319;48.974;8.462;2023-11-19T13:01:16;13.60;99.90
31747;DHT22;18319;48.974;8.462;2023-11-19T13:03:43;13.90;99.90
31747;DHT22;18319;48.974;8.462;2023-11-19T13:06:12;14.20;99.90
31747;DHT22;18319;48.974;8.462;2023-11-19T13:08:40;14.60;99.90
31747;DHT22;18319;48.974;8.462;2023-11-19T13:11:08;14.90;99.90
31747;DHT22;18319;48.974;8.462;2023-11-19T13:13:55;15.30;99.90
31747;DHT22;18319;48.974;8.462;2023-11-19T13:16:22;15.40;99.90
31747;DHT22;18319;48.974;8.462;2023-11-19T13:18:49;15.20;99.90
31747;DHT22;18319;48.974;8.462;2023-11-19T13:21:15;14.90;99.90
31747;DHT22;18319;48.974;8.462;2023-11-19T13:23:42;14.90;99.90
31747;DHT22;18319;48.974;8.462;2023-11-19T13:26:11;15.10;99.90
31747;DHT22;18319;48.974;8.462;2023-11-19T13:28:38;15.00;99.90
31747;DHT22;18319;48.974;8.462;2023-11-19T13:31:05;15.00;99.90
31747;DHT22;18319;48.974;8.462;2023-11-19T13:33:33;14.60;99.90
31747;DHT22;18319;48.974;8.462;2023-11-19T13:36:00;14.40;99.90
31747;DHT22;18319;48.974;8.462;2023-11-19T13:38:31;14.10;99.90
31747;DHT22;18319;48.974;8.462;2023-11-19T13:40:58;14.10;99.90
31747;DHT22;18319;48.974;8.462;2023-11-19T13:43:26;14.00;99.90
31747;DHT22;18319;48.974;8.462;2023-11-19T13:45:54;14.00;99.90
31747;DHT22;18319;48.974;8.462;2023-11-19T13:48:21;14.30;99.90
31747;DHT22;18319;48.974;8.462;2023-11-19T13:50:48;14.50;99.90
31747;DHT22;18319;48.974;8.462;2023-11-19T13:53:15;14.30;99.90
31747;DHT22;18319;48.974;8.462;2023-11-19T13:55:42;13.90;99.90
31747;DHT22;18319;48.974;8.462;2023-11-19T13:58:09;13.90;99.90
31747;DHT22;18319;48.974;8.462;2023-11-19T14:00:37;13.70;99.90
31747;DHT22;18319;48.974;8.462;2023-11-19T14:03:04;13.40;99.90
31747;DHT22;18319;48.974;8.462;2023-11-19T14:05:31;13.30;99.90
31747;DHT22;18319;48.974;8.462;2023-11-19T14:07:58;13.40;99.90
31747;DHT22;18319;48.974;8.462;2023-11-19T14:10:26;13.40;99.90
31747;DHT22;18319;48.974;8.462;2023-11-19T14:12:54;13.40;99.90
31747;DHT22;18319;48.974;8.462;2023-11-19T14:15:21;13.50;99.90
31747;DHT22;18319;48.974;8.462;2023-11-19T14:17:49;13.60;99.90
31747;DHT22;18319;48.974;8.462;2023-11-19T14:20:16;13.70;99.90
31747;DHT22;18319;48.974;8.462;2023-11-19T14:22:43;13.70;99.90
31747;DHT22;18319;48.974;8.462;2023-11-19T14:25:11;13.70;99.90
31747;DHT22;18319;48.974;8.462;2023-11-19T14:27:38;13.70;99.90
31747;DHT22;18319;48.974;8.462;2023-11-19T14:30:06;13.70;99.90
31747;DHT22;18319;48.974;8.462;2023-11-19T14:32:33;13.90;99.90
31747;DHT22;18319;48.974;8.462;2023-11-19T14:35:01;14.00;99.90
31747;DHT22;18319;48.974;8.462;2023-11-19T14:37:29;14.10;99.90
31747;DHT22;18319;48.974;8.462;2023-11-19T14:39:56;14.20;99.90
31747;DHT22;18319;48.974;8.462;2023-11-19T14:42:23;14.10;99.90
31747;DHT22;18319;48.974;8.462;2023-11-19T14:44:50;14.10;99.90
31747;DHT22;18319;48.974;8.462;2023-11-19T14:47:18;14.00;99.90
31747;DHT22;18319;48.974;8.462;2023-11-19T14:49:45;13.70;99.90
31747;DHT22;18319;48.974;8.462;2023-11-19T14:52:13;13.60;99.90
31747;DHT22;18319;48.974;8.462;2023-11-19T14:54:40;13.50;99.90
31747;DHT22;18319;48.974;8.462;2023-11-19T14:57:07;13.30;99.90
31747;DHT22;18319;48.974;8.462;2023-11-19T14:59:35;13.10;99.90
31747;DHT22;18319;48.974;8.462;2023-11-19T15:02:02;13.00;99.90
31747;DHT22;18319;48.974;8.462;2023-11-19T15:04:29;12.90;99.90
31747;DHT22;18319;48.974;8.462;2023-11-19T15:06:57;13.00;99.90
31747;DHT22;18319;48.974;8.462;2023-11-19T15:09:25;12.90;99.90
31747;DHT22;18319;48.974;8.462;2023-11-19T15:11:54;12.90;99.90
31747;DHT22;18319;48.974;8.462;2023-11-19T15:14:20;13.00;99.90
31747;DHT22;18319;48.974;8.462;2023-11-19T15:16:48;13.00;99.90
31747;DHT22;18319;48.974;8.462;2023-11-19T15:19:17;13.10;99.90
31747;DHT22;18319;48.974;8.462;2023-11-19T15:21:45;13.00;99.90
31747;DHT22;18319;48.974;8.462;2023-11-19T15:24:12;12.80;99.90
31747;DHT22;18319;48.974;8.462;2023-11-19T15:26:40;12.60;99.90
31747;DHT22;18319;48.974;8.462;2023-11-19T15:29:07;12.40;99.90
31747;DHT22;18319;48.974;8.462;2023-11-19T15:31:34;12.50;99.90
31747;DHT22;18319;48.974;8.462;2023-11-19T15:34:01;12.30;99.90
31747;DHT22;18319;48.974;8.462;2023-11-19T15:36:29;12.30;99.90
31747;DHT22;18319;48.974;8.462;2023-11-19T15:38:57;12.20;99.90
31747;DHT22;18319;48.974;8.462;2023-11-19T15:41:24;12.20;99.90
31747;DHT22;18319;48.974;8.462;2023-11-19T15:43:53;12.20;99.90